Time;durP1;ratioP1;P1;durP2;ratioP2;P2;SDS_P1;SDS_P2;PMS_P1;PMS_P2;Temp;Humidity;BMP_temperature;BMP_pressure;BME280_temperature;BME280_humidity;BME280_pressure;Samples;Min_cycle;Max_cycle;Signal;HPM_P1;HPM_P2
2022/05/05 00:01:28;;;;;;;6.40;5.80;;;;;;;12.78;100.00;100457.66;5106564;28;20578;-50
2022/05/05 00:03:53;;;;;;;6.00;5.50;;;;;;;12.79;100.00;100455.94;5107216;28;20185;-50
2022/05/05 00:06:18;;;;;;;5.70;5.30;;;;;;;12.78;100.00;100459.41;5104811;27;20227;-52
2022/05/05 00:08:44;;;;;;;6.03;5.63;;;;;;;12.77;100.00;100462.88;5103735;28;20218;-51
2022/05/05 00:16:37;;;;;;;6.40;5.93;;;;;;;12.73;100.00;100459.47;5099438;28;20298;-50
2022/05/05 00:19:03;;;;;;;6.07;5.57;;;;;;;12.74;100.00;100468.13;5100902;27;20939;-50
2022/05/05 00:21:28;;;;;;;5.97;5.57;;;;;;;12.72;100.00;100462.97;5104353;28;20192;-49
2022/05/05 00:23:53;;;;;;;6.47;5.97;;;;;;;12.69;100.00;100457.81;5101164;28;20193;-50
2022/05/05 00:26:19;;;;;;;6.47;5.97;;;;;;;12.66;100.00;100455.25;5100073;28;20201;-51
2022/05/05 00:28:44;;;;;;;6.27;5.77;;;;;;;12.65;100.00;100459.59;5101797;28;20238;-50
2022/05/05 00:31:09;;;;;;;6.10;5.70;;;;;;;12.63;100.00;100452.69;5102933;28;20186;-50
2022/05/05 00:33:35;;;;;;;6.30;5.80;;;;;;;12.59;100.00;100454.47;5102283;28;20202;-50
2022/05/05 00:36:00;;;;;;;6.53;6.03;;;;;;;12.56;100.00;100457.13;5096989;28;20204;-50
2022/05/05 00:38:25;;;;;;;5.53;5.13;;;;;;;12.52;100.00;100457.19;5104811;28;20200;-50
2022/05/05 00:40:51;;;;;;;6.43;5.93;;;;;;;12.47;100.00;100449.47;5100892;28;20192;-50
2022/05/05 00:43:16;;;;;;;6.40;5.90;;;;;;;12.42;100.00;100454.72;5104237;28;20192;-51
2022/05/05 00:45:41;;;;;;;6.90;6.37;;;;;;;12.41;100.00;100453.00;5101445;27;20230;-51
2022/05/05 00:48:08;;;;;;;6.83;6.30;;;;;;;12.37;100.00;100456.53;5096122;28;20240;-50
2022/05/05 00:50:35;;;;;;;6.43;6.00;;;;;;;12.34;100.00;100460.03;5104425;27;22093;-50
2022/05/05 00:53:02;;;;;;;6.63;6.10;;;;;;;12.31;100.00;100451.44;5102083;28;20201;-51
2022/05/05 00:55:31;;;;;;;6.73;6.23;;;;;;;12.29;100.00;100451.44;5101113;28;20208;-50
2022/05/05 00:57:56;;;;;;;6.70;6.20;;;;;;;12.27;100.00;100458.38;5105720;28;20181;-50
2022/05/05 01:00:21;;;;;;;6.77;6.27;;;;;;;12.26;100.00;100458.41;5104039;28;20200;-50
2022/05/05 01:02:48;;;;;;;6.70;6.20;;;;;;;12.24;100.00;100462.75;5119061;27;20184;-50
2022/05/05 01:05:13;;;;;;;6.87;6.37;;;;;;;12.22;100.00;100461.91;5104660;27;20287;-50
2022/05/05 01:07:39;;;;;;;6.47;6.07;;;;;;;12.21;100.00;100463.66;5100079;27;20214;-50
2022/05/05 01:10:05;;;;;;;7.23;6.60;;;;;;;12.21;100.00;100468.84;5107382;28;20226;-50
2022/05/05 01:12:31;;;;;;;6.53;6.00;;;;;;;12.19;100.00;100458.47;5102408;27;20188;-50
2022/05/05 01:14:59;;;;;;;7.40;6.80;;;;;;;12.20;100.00;100465.38;5099911;28;20274;-50
2022/05/05 01:17:26;;;;;;;6.87;6.37;;;;;;;12.21;100.00;100468.84;5102314;28;20193;-49
2022/05/05 01:19:52;;;;;;;7.00;6.50;;;;;;;12.24;100.00;100465.34;5099032;28;20184;-50
2022/05/05 01:22:20;;;;;;;6.53;6.03;;;;;;;12.25;100.00;100467.91;5097432;28;20180;-50
2022/05/05 01:30:13;;;;;;;7.33;6.83;;;;;;;12.28;100.00;100467.88;5098236;28;20200;-50
2022/05/05 01:32:39;;;;;;;7.53;6.93;;;;;;;12.29;100.00;100463.56;5105049;28;20569;-49
2022/05/05 01:35:04;;;;;;;7.70;7.10;;;;;;;12.30;100.00;100476.50;5101414;28;20567;-50
2022/05/05 01:37:30;;;;;;;7.63;6.23;;;;;;;12.30;100.00;100471.31;5101409;28;20188;-50
2022/05/05 01:39:56;;;;;;;6.77;6.27;;;;;;;12.32;100.00;100466.13;5098274;28;20177;-50
2022/05/05 01:42:21;;;;;;;7.70;7.10;;;;;;;12.32;100.00;100468.72;5095500;28;20565;-51
2022/05/05 01:44:47;;;;;;;6.97;6.47;;;;;;;12.33;100.00;100466.09;5097630;28;20210;-49
2022/05/05 01:47:12;;;;;;;7.13;6.53;;;;;;;12.34;100.00;100465.22;5102357;28;20196;-50
2022/05/05 01:49:38;;;;;;;7.37;6.87;;;;;;;12.35;100.00;100466.94;5100676;27;20188;-50
2022/05/05 01:52:12;;;;;;;6.63;6.13;;;;;;;12.35;100.00;100466.06;5099267;28;20270;-50
2022/05/05 01:54:38;;;;;;;7.77;7.17;;;;;;;12.35;100.00;100468.66;5097612;28;20299;-50
2022/05/05 01:57:04;;;;;;;7.40;6.83;;;;;;;12.35;100.00;100460.88;5101447;28;20602;-50
2022/05/05 01:59:29;;;;;;;7.33;6.83;;;;;;;12.35;100.00;100469.53;5100031;27;20198;-50
2022/05/05 02:01:55;;;;;;;7.00;6.50;;;;;;;12.37;100.00;100464.31;5101071;28;20178;-49
2022/05/05 02:04:20;;;;;;;6.93;6.43;;;;;;;12.37;100.00;100464.31;5099316;27;20960;-50
2022/05/05 02:06:45;;;;;;;6.47;6.00;;;;;;;12.39;100.00;100459.97;5099671;28;20230;-50
2022/05/05 02:09:11;;;;;;;7.00;6.43;;;;;;;12.41;100.00;100465.13;5103950;27;20797;-50
2022/05/05 02:11:41;;;;;;;7.10;6.60;;;;;;;12.42;100.00;100464.25;5098233;28;20189;-50
2022/05/05 02:14:07;;;;;;;6.80;6.30;;;;;;;12.43;100.00;100465.97;5097867;28;20203;-52
2022/05/05 02:16:32;;;;;;;6.90;6.40;;;;;;;12.43;100.00;100468.56;5093998;27;20186;-49
2022/05/05 02:18:57;;;;;;;7.40;6.87;;;;;;;12.44;100.00;100465.09;5096117;27;20330;-51
2022/05/05 02:21:23;;;;;;;7.90;7.30;;;;;;;12.44;100.00;100470.28;5096394;28;20676;-51
2022/05/05 02:23:48;;;;;;;7.77;7.17;;;;;;;12.44;100.00;100473.75;5102973;27;20193;-50
2022/05/05 02:26:13;;;;;;;7.03;6.53;;;;;;;12.43;100.00;100477.22;5101562;27;20319;-51
2022/05/05 02:28:39;;;;;;;7.17;6.67;;;;;;;12.43;100.00;100469.44;5099532;27;20204;-51
2022/05/05 02:31:04;;;;;;;6.90;6.40;;;;;;;12.44;100.00;100480.66;5098207;27;20176;-50
2022/05/05 02:33:29;;;;;;;7.40;6.90;;;;;;;12.44;100.00;100465.09;5101119;28;20553;-50
2022/05/05 02:38:43;;;;;;;8.30;7.70;;;;;;;12.41;100.00;100468.59;5075182;28;20230;-50
2022/05/05 02:41:09;;;;;;;7.97;7.27;;;;;;;12.42;100.00;100466.84;5101320;27;20184;-58
2022/05/05 02:43:34;;;;;;;8.17;7.57;;;;;;;12.42;100.00;100465.13;5097929;28;20173;-50
2022/05/05 02:45:59;;;;;;;8.60;7.87;;;;;;;12.42;100.00;100466.84;5104476;27;20656;-50
2022/05/05 02:48:25;;;;;;;8.37;7.60;;;;;;;12.42;100.00;100472.91;5100234;28;20289;-50
2022/05/05 02:50:50;;;;;;;8.47;7.87;;;;;;;12.41;100.00;100462.53;5098140;28;20177;-50
2022/05/05 02:55:59;;;;;;;8.10;7.50;;;;;;;12.41;100.00;100465.13;5095445;27;20207;-51
2022/05/05 02:58:27;;;;;;;7.73;7.23;;;;;;;12.40;100.00;100469.47;5098776;28;20217;-50
2022/05/05 03:00:55;;;;;;;7.43;6.77;;;;;;;12.39;100.00;100467.75;5103244;28;20184;-51
2022/05/05 03:03:21;;;;;;;8.20;7.50;;;;;;;12.39;100.00;100466.91;5096961;28;20199;-51
2022/05/05 03:05:46;;;;;;;7.87;7.27;;;;;;;12.38;100.00;100462.59;5096999;28;20213;-51
2022/05/05 03:08:12;;;;;;;7.73;7.00;;;;;;;12.38;100.00;100472.97;5101296;28;20190;-50
2022/05/05 03:10:38;;;;;;;7.60;7.10;;;;;;;12.37;100.00;100468.66;5099722;28;20193;-50
2022/05/05 03:13:03;;;;;;;7.73;7.13;;;;;;;12.35;100.00;100469.53;5097968;28;20316;-50
2022/05/05 03:15:28;;;;;;;7.63;7.03;;;;;;;12.35;100.00;100466.94;5096455;28;20208;-50
2022/05/05 03:17:54;;;;;;;7.83;7.30;;;;;;;12.34;100.00;100465.22;5094513;28;20247;-50
2022/05/05 03:20:19;;;;;;;8.10;7.50;;;;;;;12.34;100.00;100466.94;5100595;28;20540;-50
2022/05/05 03:22:44;;;;;;;7.70;7.20;;;;;;;12.32;100.00;100466.97;5097657;28;20191;-50
2022/05/05 03:25:10;;;;;;;7.37;6.87;;;;;;;12.31;100.00;100472.19;5098954;28;20248;-50
2022/05/05 03:27:37;;;;;;;7.90;7.30;;;;;;;12.28;100.00;100477.41;5092610;28;20181;-50
2022/05/05 03:30:03;;;;;;;7.07;6.57;;;;;;;12.27;100.00;100473.09;5105618;28;20230;-49
2022/05/05 03:32:28;;;;;;;7.43;6.93;;;;;;;12.24;100.00;100476.59;5107735;28;20610;-50
2022/05/05 03:34:54;;;;;;;8.00;7.40;;;;;;;12.20;100.00;100474.91;5101321;28;20253;-49
2022/05/05 03:37:19;;;;;;;7.67;7.00;;;;;;;12.15;100.00;100480.19;5101147;28;20189;-51
2022/05/05 03:39:45;;;;;;;7.60;7.10;;;;;;;12.11;100.00;100483.69;5107960;28;20254;-51
2022/05/05 03:42:11;;;;;;;7.63;6.97;;;;;;;12.05;100.00;100483.75;5103977;28;20242;-51
2022/05/05 03:44:36;;;;;;;7.33;6.83;;;;;;;12.00;100.00;100488.16;5105342;28;20252;-51
2022/05/05 03:47:02;;;;;;;7.77;7.17;;;;;;;11.97;100.00;100486.38;5103661;28;20235;-53
2022/05/05 03:49:27;;;;;;;9.20;8.60;;;;;;;11.92;100.00;100485.59;5102356;28;20194;-49
2022/05/05 03:51:52;;;;;;;9.70;9.10;;;;;;;11.86;100.00;100486.53;5100482;28;20245;-50
2022/05/05 03:54:18;;;;;;;9.67;8.87;;;;;;;11.82;100.00;100483.97;5096874;28;20298;-50
2022/05/05 03:56:44;;;;;;;9.13;8.37;;;;;;;11.76;100.00;100490.09;5098776;27;20237;-48
2022/05/05 03:59:09;;;;;;;7.63;7.13;;;;;;;11.73;100.00;100493.56;5102370;28;20215;-50
2022/05/05 04:01:35;;;;;;;7.27;6.67;;;;;;;11.70;100.00;100497.94;5100586;28;20196;-50
2022/05/05 04:04:00;;;;;;;7.23;6.63;;;;;;;11.68;100.00;100499.69;5104161;28;20177;-50
2022/05/05 04:06:25;;;;;;;7.63;7.07;;;;;;;11.65;100.00;100495.38;5105060;28;20184;-50
2022/05/05 04:08:51;;;;;;;7.57;7.00;;;;;;;11.65;100.00;100500.56;5088279;28;20234;-50
2022/05/05 04:11:16;;;;;;;7.53;6.97;;;;;;;11.64;100.00;100498.00;5104912;28;20188;-50
2022/05/05 04:13:41;;;;;;;7.13;6.60;;;;;;;11.65;100.00;100494.53;5100806;28;20217;-50
2022/05/05 04:16:07;;;;;;;8.03;7.40;;;;;;;11.66;100.00;100507.47;5101241;28;20209;-51
2022/05/05 04:18:33;;;;;;;7.37;6.80;;;;;;;11.68;100.00;100510.91;5104864;27;20180;-50
2022/05/05 04:20:59;;;;;;;7.50;7.00;;;;;;;11.71;100.00;100515.22;5102746;28;20184;-50
2022/05/05 04:23:24;;;;;;;7.90;7.20;;;;;;;11.74;100.00;100505.66;5101032;28;20976;-53
2022/05/05 04:25:50;;;;;;;7.00;6.50;;;;;;;11.79;100.00;100517.72;5100684;28;20701;-50
2022/05/05 04:28:15;;;;;;;7.53;6.93;;;;;;;11.83;100.00;100511.63;5119112;27;20184;-50
2022/05/05 04:30:41;;;;;;;7.47;6.97;;;;;;;11.89;100.00;100514.16;5108496;28;20572;-50
2022/05/05 04:33:07;;;;;;;7.27;6.77;;;;;;;11.94;100.00;100521.88;5104964;28;20209;-50
2022/05/05 04:35:35;;;;;;;7.63;7.13;;;;;;;11.99;100.00;100531.34;5099673;28;20817;-49
2022/05/05 04:38:00;;;;;;;7.40;6.90;;;;;;;12.03;100.00;100519.22;5101704;28;21790;-49
2022/05/05 04:40:26;;;;;;;7.77;7.20;;;;;;;12.07;100.00;100531.28;5099750;28;20220;-50
2022/05/05 04:42:51;;;;;;;7.53;6.93;;;;;;;12.12;100.00;100521.72;5101631;28;20177;-50
2022/05/05 04:45:17;;;;;;;7.60;6.97;;;;;;;12.16;100.00;100531.19;5101894;28;20690;-51
2022/05/05 04:47:43;;;;;;;7.17;6.67;;;;;;;12.23;100.00;100536.28;5097836;28;20647;-54
2022/05/05 04:50:09;;;;;;;7.13;6.63;;;;;;;12.28;100.00;100537.09;5104772;28;20711;-50
2022/05/05 04:52:34;;;;;;;7.70;7.10;;;;;;;12.33;100.00;100536.16;5100951;28;20576;-50
2022/05/05 04:55:03;;;;;;;8.80;8.10;;;;;;;12.38;100.00;100538.69;5103392;28;20436;-50
2022/05/05 04:57:28;;;;;;;7.17;6.67;;;;;;;12.44;100.00;100542.94;5103183;28;20216;-50
2022/05/05 04:59:53;;;;;;;7.20;6.70;;;;;;;12.49;100.00;100546.34;5103213;28;20616;-50
2022/05/05 05:02:19;;;;;;;7.67;7.10;;;;;;;12.56;100.00;100547.97;5100958;28;20202;-50
2022/05/05 05:04:44;;;;;;;7.87;7.37;;;;;;;12.63;100.00;100543.56;5100798;28;20682;-50
2022/05/05 05:07:10;;;;;;;7.83;7.23;;;;;;;12.69;100.00;100546.09;5102421;28;20208;-50
2022/05/05 05:09:35;;;;;;;8.03;7.33;;;;;;;12.73;100.00;100546.91;5103794;28;20651;-51
2022/05/05 05:12:01;;;;;;;8.83;8.03;;;;;;;12.79;100.00;100549.44;5102080;28;20195;-50
2022/05/05 05:14:26;;;;;;;8.70;8.00;;;;;;;12.82;100.00;100552.00;5101101;28;20733;-52
2022/05/05 05:16:52;;;;;;;8.07;7.40;;;;;;;12.84;100.00;100558.03;5099075;28;20182;-50
2022/05/05 05:19:17;;;;;;;7.40;6.80;;;;;;;12.89;100.00;100568.34;5099301;28;20172;-51
2022/05/05 05:21:43;;;;;;;8.17;7.57;;;;;;;12.92;100.00;100561.34;5101820;28;20181;-50
2022/05/05 05:24:08;;;;;;;8.00;7.40;;;;;;;12.96;100.00;100562.16;5099995;28;20285;-50
2022/05/05 05:26:34;;;;;;;8.20;7.60;;;;;;;13.00;100.00;100568.19;5105266;28;20552;-50
2022/05/05 05:28:59;;;;;;;8.37;7.67;;;;;;;13.03;100.00;100574.19;5100600;28;20221;-50
2022/05/05 05:31:24;;;;;;;9.00;8.17;;;;;;;13.08;100.00;100571.53;5102774;28;20200;-51
2022/05/05 05:33:50;;;;;;;8.53;7.83;;;;;;;13.11;100.00;100572.31;5101616;27;20205;-51
2022/05/05 05:36:15;;;;;;;8.20;7.60;;;;;;;13.14;100.00;100566.25;5103120;27;20670;-51
2022/05/05 05:38:41;;;;;;;8.87;8.23;;;;;;;13.16;100.00;100576.59;5097819;27;20268;-51
2022/05/05 05:41:06;;;;;;;8.97;8.17;;;;;;;13.18;100.00;100570.50;5101444;27;20189;-51
2022/05/05 05:43:31;;;;;;;9.57;8.67;;;;;;;13.22;100.00;100568.72;5102327;27;20184;-50
2022/05/05 05:46:00;;;;;;;9.30;8.60;;;;;;;13.25;100.00;100577.31;5084863;28;20724;-51
2022/05/05 05:48:25;;;;;;;10.07;9.37;;;;;;;13.26;100.00;100573.84;5100289;27;20195;-50
2022/05/05 05:50:50;;;;;;;9.43;8.73;;;;;;;13.29;100.00;100578.13;5105171;27;20722;-50
2022/05/05 05:53:16;;;;;;;8.73;8.13;;;;;;;13.31;100.00;100586.78;5099119;27;20210;-50
2022/05/05 05:55:41;;;;;;;8.37;7.67;;;;;;;13.32;100.00;100585.88;5098954;28;20208;-50
2022/05/05 05:58:06;;;;;;;9.03;8.27;;;;;;;13.33;100.00;100579.81;5106831;27;20193;-51
2022/05/05 06:00:32;;;;;;;9.07;8.33;;;;;;;13.36;100.00;100587.56;5107484;28;20190;-51
2022/05/05 06:05:42;;;;;;;9.77;8.87;;;;;;;13.39;100.00;100595.28;5101108;27;20252;-50
2022/05/05 06:08:08;;;;;;;11.03;10.13;;;;;;;13.40;100.00;100601.41;5099736;27;20267;-50
2022/05/05 06:10:33;;;;;;;10.07;9.27;;;;;;;13.39;100.00;100595.28;5099268;28;20204;-52
2022/05/05 06:12:58;;;;;;;10.17;9.37;;;;;;;13.40;100.00;100604.00;5100072;27;20187;-51
2022/05/05 06:15:24;;;;;;;10.97;9.93;;;;;;;13.41;100.00;100603.13;5099495;28;20636;-51
2022/05/05 06:17:50;;;;;;;12.57;11.47;;;;;;;13.43;100.00;100603.09;5097730;27;20301;-49
2022/05/05 06:20:16;;;;;;;12.30;11.20;;;;;;;13.46;100.00;100605.63;5101595;28;20213;-50
2022/05/05 06:22:41;;;;;;;12.67;11.60;;;;;;;13.46;100.00;100605.63;5098586;28;20194;-50
2022/05/05 06:25:07;;;;;;;11.87;10.87;;;;;;;13.48;100.00;100601.28;5102798;28;20201;-49
2022/05/05 06:27:33;;;;;;;10.80;9.90;;;;;;;13.50;100.00;100607.31;5102909;28;20239;-51
2022/05/05 06:30:02;;;;;;;10.43;9.67;;;;;;;13.48;100.00;100615.13;5108285;28;20187;-50
2022/05/05 06:32:27;;;;;;;10.37;9.47;;;;;;;13.50;100.00;100610.75;5104312;27;20183;-49
2022/05/05 06:34:54;;;;;;;10.53;9.67;;;;;;;13.51;100.00;100619.44;5103364;27;21102;-50
2022/05/05 06:37:19;;;;;;;11.03;10.03;;;;;;;13.52;100.00;100622.00;5103714;27;20186;-49
2022/05/05 06:39:44;;;;;;;11.33;10.33;;;;;;;13.53;100.00;100626.31;5105919;28;20191;-49
2022/05/05 06:42:10;;;;;;;10.20;9.40;;;;;;;13.55;100.00;100628.88;5094893;27;20193;-51
2022/05/05 06:44:35;;;;;;;10.30;9.50;;;;;;;13.57;100.00;100632.31;5095396;28;20285;-50
2022/05/05 06:47:01;;;;;;;11.20;10.17;;;;;;;13.60;100.00;100636.63;5095616;27;20206;-51
2022/05/05 06:49:26;;;;;;;10.83;9.93;;;;;;;13.64;100.00;100639.16;5095323;27;20201;-50
2022/05/05 06:51:51;;;;;;;13.00;10.70;;;;;;;13.66;100.00;100642.59;5102832;28;20194;-49
2022/05/05 06:54:17;;;;;;;11.50;10.50;;;;;;;13.68;100.00;100642.56;5097772;28;20569;-50
2022/05/05 06:56:42;;;;;;;11.17;10.17;;;;;;;13.69;100.00;100644.28;5104135;28;20188;-49
2022/05/05 06:59:08;;;;;;;10.60;9.80;;;;;;;13.70;100.00;100646.84;5098926;28;20186;-50
2022/05/05 07:07:01;;;;;;;11.20;10.30;;;;;;;13.78;100.00;100653.69;5100287;28;20205;-51
2022/05/05 07:12:10;;;;;;;13.13;12.03;;;;;;;13.89;100.00;100659.56;5105012;27;20230;-50
2022/05/05 07:14:36;;;;;;;12.37;11.47;;;;;;;13.97;100.00;100662.91;5107255;27;20331;-49
2022/05/05 07:17:01;;;;;;;12.60;11.60;;;;;;;14.07;100.00;100660.13;5103802;28;20223;-51
2022/05/05 07:19:26;;;;;;;11.87;10.97;;;;;;;14.14;100.00;100665.19;5106808;28;20253;-50
2022/05/05 07:21:52;;;;;;;12.43;11.53;;;;;;;14.24;100.00;100665.03;5103921;28;20271;-50
2022/05/05 07:24:17;;;;;;;11.07;10.27;;;;;;;14.35;100.00;100667.44;5104896;28;20219;-50
2022/05/05 07:26:43;;;;;;;11.93;10.83;;;;;;;14.46;100.00;100666.34;5102352;28;20254;-49
2022/05/05 07:29:09;;;;;;;12.53;11.63;;;;;;;14.58;100.00;100672.22;5102625;28;20224;-50
2022/05/05 07:31:34;;;;;;;11.13;10.23;;;;;;;14.67;100.00;100673.78;5098686;28;20204;-51
2022/05/05 07:33:59;;;;;;;10.17;9.40;;;;;;;14.76;100.00;100669.28;5103701;28;20369;-50
2022/05/05 07:36:25;;;;;;;10.73;9.93;;;;;;;14.84;100.00;100670.84;5093701;28;20514;-50
2022/05/05 07:38:51;;;;;;;10.10;9.30;;;;;;;14.91;100.00;100675.91;5101771;28;20668;-50
2022/05/05 07:41:16;;;;;;;10.70;9.90;;;;;;;14.99;100.00;100680.13;5102902;28;20188;-50
2022/05/05 07:43:41;;;;;;;10.93;9.93;;;;;;;15.00;100.00;100676.63;5104580;28;20192;-50
2022/05/05 07:46:07;;;;;;;10.77;9.93;;;;;;;14.93;100.00;100676.72;5099415;28;21148;-49
2022/05/05 07:48:32;;;;;;;10.77;9.87;;;;;;;14.93;100.00;100694.13;5102941;28;20324;-51
2022/05/05 07:50:58;;;;;;;10.13;9.33;;;;;;;14.91;100.00;100688.94;5101609;28;20298;-50
2022/05/05 07:53:24;;;;;;;9.93;9.13;;;;;;;14.95;100.00;100694.97;5100802;28;21078;-50
2022/05/05 07:55:49;;;;;;;10.97;9.90;;;;;;;14.96;100.00;100688.88;5095248;28;20254;-51
2022/05/05 07:58:14;;;;;;;10.93;9.93;;;;;;;14.94;100.00;100694.09;5099551;28;20832;-49
2022/05/05 08:00:40;;;;;;;10.67;9.70;;;;;;;14.96;100.00;100690.59;5101813;28;20195;-51
2022/05/05 08:03:05;;;;;;;10.63;9.73;;;;;;;15.03;100.00;100695.66;5101741;28;20188;-53
2022/05/05 08:05:30;;;;;;;9.60;8.80;;;;;;;15.08;100.00;100695.53;5101807;28;20204;-50
2022/05/05 08:07:56;;;;;;;9.57;8.77;;;;;;;15.14;100.00;100699.75;5105385;28;20195;-51
2022/05/05 08:10:22;;;;;;;11.37;10.37;;;;;;;15.24;100.00;100709.13;5099841;28;20191;-53
2022/05/05 08:12:48;;;;;;;12.07;10.97;;;;;;;15.25;100.00;100703.03;5104856;28;20709;-51
2022/05/05 08:15:16;;;;;;;10.77;9.87;;;;;;;15.35;100.00;100704.53;5099232;28;20228;-52
2022/05/05 08:17:43;;;;;;;11.47;10.47;;;;;;;15.50;100.00;100712.91;5106443;28;20184;-51
2022/05/05 08:20:09;;;;;;;10.73;9.83;;;;;;;15.53;100.00;100715.44;5109148;28;20195;-51
2022/05/05 08:22:35;;;;;;;12.20;11.10;;;;;;;15.55;100.00;100719.72;5109522;28;20192;-51
2022/05/05 08:30:28;;;;;;;12.40;11.23;;;;;;;15.63;100.00;100723.94;5101617;27;20210;-51
2022/05/05 08:32:54;;;;;;;13.10;11.77;;;;;;;15.51;100.00;100714.63;5106509;28;20184;-51
2022/05/05 08:35:19;;;;;;;11.90;10.90;;;;;;;15.43;100.00;100708.72;5106918;28;20224;-51
2022/05/05 08:37:45;;;;;;;11.57;10.67;;;;;;;15.45;100.00;100717.34;5106591;28;20267;-51
2022/05/05 08:40:12;;;;;;;11.87;10.83;;;;;;;15.47;100.00;100719.06;5105739;28;20658;-51
2022/05/05 08:42:38;;;;;;;12.73;11.53;;;;;;;15.42;100.00;100723.50;5105025;28;20197;-53
2022/05/05 08:45:05;;;;;;;13.40;12.20;;;;;;;15.30;100.00;100731.59;5103913;28;20208;-51
2022/05/05 08:47:33;;;;;;;13.67;12.40;;;;;;;15.14;100.00;100726.72;5107023;28;20637;-51
2022/05/05 08:50:00;;;;;;;12.00;11.00;;;;;;;15.06;100.00;100726.88;5105069;28;20230;-51
2022/05/05 08:52:30;;;;;;;11.83;10.83;;;;;;;15.04;100.00;100727.81;5108407;28;20187;-51
2022/05/05 08:54:56;;;;;;;11.80;10.90;;;;;;;14.97;100.00;100734.00;5107410;28;20208;-51
2022/05/05 08:57:22;;;;;;;13.10;12.00;;;;;;;14.81;100.00;100731.72;5107663;27;20188;-52
2022/05/05 08:59:47;;;;;;;13.03;11.90;;;;;;;14.70;100.00;100736.28;5103426;27;20196;-50
2022/05/05 09:02:13;;;;;;;12.30;11.30;;;;;;;14.60;100.00;100743.38;5104946;28;20196;-51
2022/05/05 09:04:44;;;;;;;13.17;12.00;;;;;;;14.53;100.00;100741.75;5108890;28;20204;-51
2022/05/05 09:07:09;;;;;;;13.63;12.50;;;;;;;14.38;100.00;100737.69;5106582;28;20191;-52
2022/05/05 09:09:36;;;;;;;14.73;13.37;;;;;;;14.25;100.00;100735.31;5106786;27;20214;-51
2022/05/05 09:12:17;;;;;;;14.67;13.40;;;;;;;14.14;100.00;100739.84;5109705;28;20180;-51
2022/05/05 09:14:53;;;;;;;15.27;13.97;;;;;;;14.01;100.00;100739.16;5107644;28;20246;-51
2022/05/05 09:17:24;;;;;;;16.57;15.20;;;;;;;13.92;100.00;100740.16;5103805;28;20215;-51
2022/05/05 09:19:52;;;;;;;17.43;15.93;;;;;;;13.84;100.00;100739.44;5107731;28;20184;-51
2022/05/05 09:22:19;;;;;;;19.80;18.00;;;;;;;13.84;100.00;100749.84;5104758;28;20179;-52
2022/05/05 09:24:49;;;;;;;20.80;19.07;;;;;;;13.80;100.00;100749.00;5102934;28;20368;-51
2022/05/05 09:27:25;;;;;;;22.17;19.43;;;;;;;13.74;100.00;100749.13;5107013;28;20188;-51
2022/05/05 09:30:13;;;;;;;22.67;20.37;;;;;;;13.63;100.00;100744.06;5105399;28;20178;-50
2022/05/05 09:32:46;;;;;;;22.73;20.67;;;;;;;13.52;100.00;100749.41;5109116;28;20222;-51
2022/05/05 09:35:18;;;;;;;22.93;20.83;;;;;;;13.44;100.00;100748.66;5099484;28;20258;-51
2022/05/05 09:37:44;;;;;;;23.77;21.57;;;;;;;13.40;100.00;100753.03;5102319;28;21027;-50
2022/05/05 09:40:13;;;;;;;24.73;22.33;;;;;;;13.28;100.00;100753.16;5099183;27;20188;-50
2022/05/05 09:42:45;;;;;;;24.43;22.13;;;;;;;13.17;100.00;100758.47;5105328;27;20177;-51
2022/05/05 09:45:19;;;;;;;25.73;23.20;;;;;;;13.19;100.00;100751.53;5105049;28;20250;-51
2022/05/05 09:47:49;;;;;;;25.73;23.10;;;;;;;13.14;100.00;100755.94;5107188;28;20263;-51
2022/05/05 09:50:15;;;;;;;24.93;22.67;;;;;;;13.15;100.00;100755.06;5104001;28;20312;-54
2022/05/05 09:58:21;;;;;;;25.30;22.77;;;;;;;13.31;100.00;100763.53;5105813;28;20191;-50
2022/05/05 10:00:52;;;;;;;23.77;21.60;;;;;;;13.38;100.00;100762.59;5106748;28;20191;-51
2022/05/05 10:06:30;;;;;;;22.30;20.30;;;;;;;13.48;100.00;100768.53;5098976;28;20229;-51
2022/05/05 10:09:01;;;;;;;23.13;21.00;;;;;;;13.55;100.00;100767.56;5101756;28;20534;-51
2022/05/05 10:11:27;;;;;;;22.60;20.50;;;;;;;13.55;100.00;100764.97;5108682;28;20189;-50
2022/05/05 10:13:53;;;;;;;22.43;20.43;;;;;;;13.55;100.00;100762.38;5100942;28;20226;-51
2022/05/05 10:16:20;;;;;;;22.50;20.60;;;;;;;13.58;100.00;100766.66;5100701;28;20246;-50
2022/05/05 10:18:45;;;;;;;20.93;18.90;;;;;;;13.62;100.00;100764.88;5101238;28;21147;-51
2022/05/05 10:21:36;;;;;;;21.23;19.33;;;;;;;13.68;100.00;100765.69;5100888;27;20198;-51
2022/05/05 10:24:24;;;;;;;22.13;20.00;;;;;;;13.79;100.00;100764.66;5099016;27;20572;-51
2022/05/05 10:26:54;;;;;;;21.30;19.40;;;;;;;13.86;100.00;100769.75;5104770;28;20607;-51
2022/05/05 10:29:31;;;;;;;19.67;17.87;;;;;;;13.83;100.00;100774.97;5098819;28;20280;-52
2022/05/05 10:32:10;;;;;;;20.20;18.23;;;;;;;13.72;100.00;100774.28;5102148;28;20188;-51
2022/05/05 10:34:40;;;;;;;19.50;17.70;;;;;;;13.73;100.00;100768.22;5091265;28;20335;-50
2022/05/05 10:37:09;;;;;;;20.30;18.27;;;;;;;13.82;100.00;100769.81;5096219;27;20194;-50
2022/05/05 10:39:43;;;;;;;18.57;16.83;;;;;;;13.89;100.00;100774.03;5101725;28;20225;-50
2022/05/05 10:42:19;;;;;;;19.17;17.30;;;;;;;13.93;100.00;100767.03;5102860;28;20980;-52
2022/05/05 10:45:29;;;;;;;17.67;16.07;;;;;;;13.97;100.00;100777.41;5103942;27;20343;-51
2022/05/05 10:47:55;;;;;;;17.77;16.07;;;;;;;14.00;100.00;100774.72;5101424;28;20199;-50
2022/05/05 10:50:42;;;;;;;18.77;17.07;;;;;;;14.07;100.00;100779.84;5103705;27;20195;-50
2022/05/05 10:53:29;;;;;;;17.60;16.00;;;;;;;14.12;100.00;100780.63;5108052;27;20277;-50
2022/05/05 10:55:56;;;;;;;16.87;15.37;;;;;;;14.13;100.00;100782.34;5084928;28;20257;-50
2022/05/05 10:58:55;;;;;;;16.90;15.40;;;;;;;14.11;100.00;100776.31;5108493;27;20548;-50
2022/05/05 11:01:21;;;;;;;17.30;15.70;;;;;;;14.05;100.00;100785.09;5100835;27;20192;-50
2022/05/05 11:04:18;;;;;;;17.43;15.83;;;;;;;13.99;100.00;100774.75;5099286;27;20605;-51
2022/05/05 11:06:45;;;;;;;16.00;14.60;;;;;;;14.05;100.00;100781.59;5097321;27;20176;-50
2022/05/05 11:09:33;;;;;;;15.20;13.90;;;;;;;14.17;100.00;100773.59;5104394;27;20553;-51
2022/05/05 11:12:24;;;;;;;16.87;15.27;;;;;;;14.26;100.00;100777.78;5100852;27;20339;-50
2022/05/05 11:23:25;;;;;;;15.40;13.90;;;;;;;14.63;100.00;100770.22;5100798;28;20207;-50
2022/05/05 11:25:51;;;;;;;14.93;13.47;;;;;;;14.64;100.00;100773.69;5099758;28;20215;-50
2022/05/05 11:28:17;;;;;;;14.30;12.93;;;;;;;14.68;100.00;100782.34;5103331;28;20225;-50
2022/05/05 11:30:44;;;;;;;14.87;13.40;;;;;;;14.70;100.00;100776.19;5100423;28;20545;-50
2022/05/05 11:33:10;;;;;;;14.07;12.70;;;;;;;14.76;100.00;100778.69;5101406;28;20207;-50
2022/05/05 11:35:35;;;;;;;15.33;13.87;;;;;;;14.80;100.00;100769.06;5102046;28;20211;-50
2022/05/05 11:38:00;;;;;;;14.60;13.17;;;;;;;14.88;100.00;100775.00;5100373;28;20631;-49
2022/05/05 11:40:33;;;;;;;14.63;13.03;;;;;;;14.91;100.00;100774.09;5102593;28;20233;-50
2022/05/05 11:45:43;;;;;;;14.63;13.23;;;;;;;15.11;100.00;100767.63;5097933;28;20258;-51
2022/05/05 11:48:19;;;;;;;14.73;13.33;;;;;;;15.15;100.00;100762.31;5096416;28;20189;-50
2022/05/05 11:50:44;;;;;;;14.87;13.27;;;;;;;15.10;100.00;100764.16;5099387;27;20673;-50
2022/05/05 11:53:17;;;;;;;13.30;12.10;;;;;;;15.02;100.00;100763.47;5106193;27;20247;-50
2022/05/05 11:55:46;;;;;;;14.20;12.80;;;;;;;14.92;100.00;100762.78;5103291;27;20696;-50
2022/05/05 12:01:36;;;;;;;13.47;12.17;;;;;;;14.86;100.00;100770.69;5107108;27;20210;-50
2022/05/05 12:04:00;;;;;;;13.27;12.00;;;;;;;14.75;100.00;100770.91;5104929;28;20187;-50
2022/05/05 12:06:27;;;;;;;14.67;13.23;;;;;;;14.75;100.00;100774.38;5104071;27;20921;-50